createdAt,value
2023-01-22T00:04:23.831Z,78.81
2023-01-22T00:06:50.367Z,77.07
2023-01-22T00:09:16.944Z,77.30
2023-01-22T00:11:43.494Z,77.67
2023-01-22T00:14:10.220Z,79.04
2023-01-22T00:16:36.870Z,79.54
2023-01-22T00:19:03.434Z,79.22
2023-01-22T00:21:29.997Z,78.17
2023-01-22T00:23:56.561Z,77.89
2023-01-22T00:26:25.621Z,77.51
2023-01-22T00:31:45.152Z,77.93
2023-01-22T00:34:11.939Z,77.27
2023-01-22T00:36:41.132Z,76.83
2023-01-22T00:39:09.031Z,77.27
2023-01-22T00:42:03.653Z,77.69
2023-01-22T00:44:51.965Z,77.86
2023-01-22T00:47:18.596Z,75.98
2023-01-22T00:49:45.143Z,75.10
2023-01-22T00:52:11.729Z,74.77
2023-01-22T00:54:38.525Z,75.19
2023-01-22T00:57:05.274Z,77.81
2023-01-22T00:59:32.498Z,76.60
2023-01-22T01:01:59.179Z,77.14
2023-01-22T01:04:25.729Z,76.91
2023-01-22T01:06:52.504Z,75.43
2023-01-22T01:09:19.153Z,75.22
2023-01-22T01:11:46.881Z,75.57
2023-01-22T01:14:25.439Z,76.50
2023-01-22T01:16:52.109Z,76.82
2023-01-22T01:19:20.555Z,77.99
2023-01-22T01:21:47.426Z,76.54
2023-01-22T01:24:19.417Z,77.02
2023-01-22T01:27:33.723Z,76.45
2023-01-22T01:30:11.096Z,79.85
2023-01-22T01:32:37.960Z,79.25
2023-01-22T01:35:05.538Z,78.68
2023-01-22T01:37:32.424Z,79.58
2023-01-22T01:39:58.957Z,80.79
2023-01-22T01:42:39.017Z,79.83
2023-01-22T01:45:29.311Z,79.29
2023-01-22T01:48:16.121Z,77.62
2023-01-22T01:50:45.060Z,79.21
2023-01-22T01:53:11.685Z,80.54
2023-01-22T01:56:03.536Z,81.18
2023-01-22T01:58:47.249Z,81.67
2023-01-22T02:01:18.050Z,82.77
2023-01-22T02:03:49.165Z,82.35
2023-01-22T02:06:22.111Z,80.71
2023-01-22T02:08:50.490Z,81.46
2023-01-22T02:11:19.039Z,81.35
2023-01-22T02:13:51.491Z,81.23
2023-01-22T02:16:18.906Z,82.22
2023-01-22T02:18:45.558Z,81.00
2023-01-22T02:21:43.314Z,80.83
2023-01-22T02:24:13.284Z,81.85
2023-01-22T02:27:00.004Z,83.15
2023-01-22T02:29:39.754Z,83.97
2023-01-22T02:32:06.556Z,83.01
2023-01-22T02:34:33.439Z,84.03
2023-01-22T02:37:01.139Z,85.62
2023-01-22T02:39:52.728Z,84.63
2023-01-22T02:42:47.239Z,84.07
2023-01-22T02:45:13.910Z,82.97
2023-01-22T02:47:40.734Z,85.11
2023-01-22T02:50:08.154Z,84.89
2023-01-22T02:52:34.786Z,83.26
2023-01-22T02:55:01.317Z,83.07
2023-01-22T02:57:30.298Z,83.71
2023-01-22T02:59:57.537Z,82.83
2023-01-22T03:02:25.520Z,83.06
2023-01-22T03:05:03.145Z,82.07
2023-01-22T03:07:44.908Z,82.24
2023-01-22T03:10:35.790Z,82.95
2023-01-22T03:13:45.076Z,83.49
2023-01-22T03:16:30.200Z,85.12
2023-01-22T03:19:15.469Z,85.00
2023-01-22T03:21:43.967Z,84.54
2023-01-22T03:24:10.627Z,83.94
2023-01-22T03:26:37.169Z,83.58
2023-01-22T03:29:18.791Z,83.95
2023-01-22T03:31:48.441Z,83.96
2023-01-22T03:34:16.889Z,84.26
2023-01-22T03:36:43.782Z,84.71
2023-01-22T03:39:44.472Z,84.88
2023-01-22T03:42:32.761Z,84.15
2023-01-22T03:44:59.301Z,83.08
2023-01-22T03:47:25.883Z,82.03
2023-01-22T03:49:52.517Z,81.57
2023-01-22T03:52:19.044Z,82.86
2023-01-22T03:54:45.587Z,82.73
2023-01-22T03:57:30.812Z,82.73
2023-01-22T04:00:02.070Z,82.95
2023-01-22T04:02:29.118Z,82.27
2023-01-22T04:04:55.766Z,82.45
2023-01-22T04:08:31.219Z,82.75
2023-01-22T04:11:28.818Z,82.99
2023-01-22T04:13:56.556Z,83.27
2023-01-22T04:16:23.377Z,82.86
2023-01-22T04:18:50.164Z,82.77
2023-01-22T04:21:16.743Z,83.33
2023-01-22T04:23:43.311Z,83.94
2023-01-22T04:26:09.905Z,84.11
2023-01-22T04:28:36.443Z,83.86
2023-01-22T04:31:04.752Z,83.21
2023-01-22T04:33:31.952Z,82.59
2023-01-22T04:35:58.617Z,83.37
2023-01-22T04:38:25.229Z,82.80
2023-01-22T04:40:51.781Z,82.35
2023-01-22T04:43:18.396Z,81.63
2023-01-22T04:45:45.129Z,81.35
2023-01-22T04:48:12.748Z,83.21
2023-01-22T04:50:39.328Z,82.84
2023-01-22T04:53:05.909Z,82.42
2023-01-22T04:55:32.599Z,82.04
2023-01-22T04:58:57.909Z,81.24
2023-01-22T05:01:44.535Z,81.23
2023-01-22T05:04:11.341Z,81.02
2023-01-22T05:06:37.922Z,81.83
2023-01-22T05:09:04.506Z,80.93
2023-01-22T05:11:31.036Z,81.05
2023-01-22T05:13:57.612Z,79.91
2023-01-22T05:19:13.083Z,80.38
2023-01-22T05:21:39.601Z,80.17
2023-01-22T05:24:06.520Z,80.69
2023-01-22T05:26:35.303Z,79.25
2023-01-22T05:29:01.898Z,78.22
2023-01-22T05:31:47.419Z,79.65
2023-01-22T05:37:10.497Z,78.19
2023-01-22T05:39:37.072Z,77.15
2023-01-22T05:42:03.747Z,78.87
2023-01-22T05:44:31.732Z,77.61
2023-01-22T05:47:09.430Z,77.04
2023-01-22T05:49:35.992Z,76.55
2023-01-22T05:52:02.574Z,76.22
2023-01-22T05:54:29.171Z,76.43
2023-01-22T05:56:55.820Z,76.53
2023-01-22T05:59:22.421Z,76.82
2023-01-22T06:02:04.199Z,77.16
2023-01-22T06:04:30.775Z,77.01
2023-01-22T06:06:57.479Z,77.05
2023-01-22T06:09:24.569Z,77.18
2023-01-22T06:12:13.117Z,78.80
2023-01-22T06:15:32.471Z,78.98
2023-01-22T06:18:02.251Z,78.87
2023-01-22T06:20:28.837Z,78.69
2023-01-22T06:22:55.596Z,79.19
2023-01-22T06:25:22.155Z,78.73
2023-01-22T06:27:48.673Z,79.19
2023-01-22T06:30:16.021Z,78.91
2023-01-22T06:50:25.148Z,79.84
2023-01-22T06:52:51.733Z,79.64
2023-01-22T06:55:18.398Z,79.11
2023-01-22T06:57:44.997Z,78.43
2023-01-22T07:00:11.900Z,79.33
2023-01-22T07:02:38.504Z,77.29
2023-01-22T07:12:55.537Z,77.02
2023-01-22T07:15:22.451Z,76.57
2023-01-22T07:17:52.685Z,77.69
2023-01-22T07:20:20.990Z,76.97
2023-01-22T07:22:47.559Z,75.09
2023-01-22T07:25:14.576Z,74.84
2023-01-22T07:27:41.301Z,74.31
2023-01-22T07:30:08.443Z,73.84
2023-01-22T07:32:50.419Z,74.72
2023-01-22T07:35:18.654Z,74.47
2023-01-22T07:37:51.725Z,74.73
2023-01-22T07:40:18.479Z,75.20
2023-01-22T07:43:26.692Z,75.49
2023-01-22T07:46:13.164Z,74.80
2023-01-22T07:48:39.725Z,74.20
2023-01-22T07:51:06.897Z,75.43
2023-01-22T07:53:34.750Z,75.69
2023-01-22T07:56:01.982Z,74.28
2023-01-22T07:58:30.678Z,74.36
2023-01-22T08:00:57.342Z,74.04
2023-01-22T08:03:24.068Z,74.29
2023-01-22T08:05:50.714Z,74.01
2023-01-22T08:08:20.528Z,74.25
2023-01-22T08:10:47.734Z,73.74
2023-01-22T08:13:14.871Z,73.47
2023-01-22T08:15:45.227Z,75.27
2023-01-22T08:18:11.904Z,76.49
2023-01-22T08:20:38.475Z,75.61
2023-01-22T08:23:05.229Z,75.24
2023-01-22T08:25:31.809Z,75.67
2023-01-22T08:28:02.851Z,76.01
2023-01-22T08:30:29.451Z,75.43
2023-01-22T08:32:58.107Z,74.53
2023-01-22T08:35:24.681Z,75.16
2023-01-22T08:37:51.308Z,76.72
2023-01-22T08:45:28.360Z,75.44
2023-01-22T08:47:59.872Z,74.93
2023-01-22T08:50:29.345Z,74.99
2023-01-22T08:52:57.674Z,74.95
2023-01-22T08:55:27.851Z,73.93
2023-01-22T08:57:57.657Z,73.80
2023-01-22T09:00:25.694Z,73.62
2023-01-22T09:02:59.829Z,73.85
2023-01-22T09:05:27.979Z,74.54
2023-01-22T09:07:54.675Z,73.93
2023-01-22T09:10:22.082Z,73.17
2023-01-22T09:12:48.862Z,74.33
2023-01-22T09:15:15.527Z,74.44
2023-01-22T09:17:42.583Z,74.30
2023-01-22T09:20:09.807Z,74.17
2023-01-22T09:22:36.767Z,73.66
2023-01-22T09:25:05.123Z,74.00
2023-01-22T09:27:31.884Z,74.57
2023-01-22T09:29:59.769Z,73.47
2023-01-22T09:32:26.385Z,72.87
2023-01-22T09:34:52.968Z,74.29
2023-01-22T09:37:20.273Z,75.74
2023-01-22T09:39:50.595Z,74.75
2023-01-22T09:42:31.678Z,73.56
2023-01-22T09:45:07.195Z,74.34
2023-01-22T09:47:49.495Z,75.23
2023-01-22T09:50:22.406Z,73.87
2023-01-22T09:52:52.751Z,74.22
2023-01-22T09:55:30.413Z,74.97
2023-01-22T09:58:01.943Z,75.76
2023-01-22T10:01:01.041Z,75.74
2023-01-22T10:03:41.995Z,74.85
2023-01-22T10:06:14.616Z,74.15
2023-01-22T10:09:09.767Z,72.68
2023-01-22T10:11:39.848Z,73.05
2023-01-22T10:14:12.630Z,72.10
2023-01-22T10:16:39.858Z,72.34
2023-01-22T10:19:32.953Z,72.58
2023-01-22T10:22:03.964Z,74.46
2023-01-22T10:24:30.640Z,73.37
2023-01-22T10:26:58.970Z,74.08
2023-01-22T10:29:32.149Z,72.47
2023-01-22T10:32:28.845Z,72.19
2023-01-22T10:35:20.824Z,72.99
2023-01-22T10:37:49.998Z,76.07
2023-01-22T10:40:38.354Z,74.70
2023-01-22T10:43:13.487Z,76.34
2023-01-22T10:45:54.736Z,75.98
2023-01-22T10:48:41.313Z,78.95
2023-01-22T10:51:17.828Z,78.41
2023-01-22T10:53:54.632Z,76.95
2023-01-22T10:56:46.322Z,75.77
2023-01-22T10:59:33.557Z,76.71
2023-01-22T11:02:03.591Z,77.47
2023-01-22T11:04:33.341Z,79.23
2023-01-22T11:07:07.040Z,76.85
2023-01-22T11:09:41.844Z,77.29
2023-01-22T11:12:40.371Z,77.79
2023-01-22T11:20:25.960Z,74.67
2023-01-22T11:23:10.978Z,74.76
2023-01-22T11:25:43.899Z,74.41
2023-01-22T11:28:28.381Z,74.90
2023-01-22T11:31:09.201Z,74.87
2023-01-22T11:34:22.129Z,74.27
2023-01-22T11:45:09.686Z,73.34
2023-01-22T11:48:00.481Z,73.11
2023-01-22T11:50:56.368Z,71.70
2023-01-22T11:53:48.362Z,72.95
2023-01-22T11:56:52.922Z,72.89
2023-01-22T11:59:46.384Z,72.42
2023-01-22T12:02:18.371Z,71.24
2023-01-22T12:05:11.733Z,71.88
2023-01-22T12:07:52.849Z,72.34
2023-01-22T12:10:26.512Z,71.29
2023-01-22T12:15:46.363Z,72.89
2023-01-22T12:18:28.041Z,72.05
2023-01-22T12:21:15.852Z,71.60
2023-01-22T12:23:54.292Z,74.72
2023-01-22T12:26:26.122Z,75.08
2023-01-22T12:29:33.395Z,74.39
2023-01-22T12:32:13.870Z,73.37
2023-01-22T12:35:08.984Z,73.58
2023-01-22T12:37:44.286Z,72.34
2023-01-22T12:40:34.888Z,72.29
2023-01-22T12:43:03.898Z,73.53
2023-01-22T12:45:33.203Z,73.85
2023-01-22T12:48:22.324Z,73.18
2023-01-22T12:50:56.229Z,72.33
2023-01-22T12:53:30.047Z,74.00
2023-01-22T12:56:12.019Z,72.39
2023-01-22T13:01:35.988Z,72.28
2023-01-22T13:04:08.093Z,72.10
2023-01-22T13:06:40.845Z,72.24
2023-01-22T13:09:25.058Z,73.06
2023-01-22T13:11:51.688Z,71.75
2023-01-22T13:14:30.920Z,72.58
2023-01-22T13:17:03.659Z,71.97
2023-01-22T13:19:42.371Z,71.36
2023-01-22T13:22:28.438Z,73.28
2023-01-22T13:24:57.714Z,72.55
2023-01-22T13:27:33.935Z,74.30
2023-01-22T13:30:28.000Z,74.18
2023-01-22T13:33:15.605Z,72.94
2023-01-22T13:35:44.322Z,72.04
2023-01-22T13:38:28.887Z,72.57
2023-01-22T13:41:09.167Z,71.91
2023-01-22T13:43:38.584Z,72.19
2023-01-22T13:46:05.850Z,72.89
2023-01-22T13:48:32.719Z,73.23
2023-01-22T13:51:04.733Z,73.02
2023-01-22T13:53:35.320Z,71.88
2023-01-22T13:56:02.134Z,71.34
2023-01-22T13:58:49.530Z,71.03
2023-01-22T14:01:32.583Z,70.38
2023-01-22T14:04:06.921Z,70.70
2023-01-22T14:06:49.552Z,72.29
2023-01-22T14:09:31.635Z,72.51
2023-01-22T14:11:59.408Z,72.32
2023-01-22T14:14:26.724Z,71.17
2023-01-22T14:16:53.548Z,70.75
2023-01-22T14:19:20.143Z,70.93
2023-01-22T14:21:46.697Z,70.78
2023-01-22T14:27:02.291Z,69.96
2023-01-22T14:29:28.842Z,69.88
2023-01-22T14:31:55.579Z,69.83
2023-01-22T14:34:22.423Z,71.16
2023-01-22T14:36:51.243Z,70.78
2023-01-22T14:39:18.693Z,70.76
2023-01-22T14:41:51.489Z,70.51
2023-01-22T14:44:18.199Z,70.25
2023-01-22T14:46:44.945Z,70.29
2023-01-22T14:49:11.514Z,70.90
2023-01-22T14:54:45.202Z,70.82
2023-01-22T14:57:11.777Z,70.58
2023-01-22T14:59:38.436Z,70.97
2023-01-22T15:02:05.028Z,71.19
2023-01-22T15:04:31.591Z,71.66
2023-01-22T15:06:58.349Z,71.32
2023-01-22T15:09:25.272Z,70.81
2023-01-22T15:11:51.881Z,71.10
2023-01-22T15:14:18.457Z,71.08
2023-01-22T15:16:45.153Z,71.38
2023-01-22T15:19:11.797Z,71.86
2023-01-22T15:21:38.444Z,71.21
2023-01-22T15:24:05.236Z,70.71
2023-01-22T15:26:35.373Z,70.71
2023-01-22T15:29:03.542Z,70.86
2023-01-22T15:31:30.871Z,70.76
2023-01-22T15:33:59.959Z,70.93
2023-01-22T15:36:28.275Z,71.28
2023-01-22T15:38:56.818Z,71.88
2023-01-22T15:41:28.702Z,71.39
2023-01-22T15:44:01.239Z,71.10
2023-01-22T15:46:30.463Z,70.90
2023-01-22T15:48:58.822Z,71.65
2023-01-22T15:51:26.553Z,72.37
2023-01-22T15:53:59.149Z,72.27
2023-01-22T15:56:29.083Z,72.59
2023-01-22T15:58:56.915Z,72.24
2023-01-22T16:01:24.521Z,72.22
2023-01-22T16:03:51.511Z,72.44
2023-01-22T16:06:22.461Z,72.54
2023-01-22T16:08:51.404Z,72.29
2023-01-22T16:11:18.044Z,71.88
2023-01-22T16:13:45.426Z,71.99
2023-01-22T16:16:25.539Z,71.94
2023-01-22T16:18:53.477Z,72.61
2023-01-22T16:21:21.541Z,74.63
2023-01-22T16:23:53.554Z,74.87
2023-01-22T16:26:26.440Z,74.76
2023-01-22T16:29:04.967Z,75.42
2023-01-22T16:31:33.823Z,75.20
2023-01-22T16:34:07.949Z,75.27
2023-01-22T16:36:34.505Z,74.32
2023-01-22T16:39:01.530Z,73.13
2023-01-22T16:41:30.513Z,72.65
2023-01-22T16:44:05.673Z,72.33
2023-01-22T16:46:33.794Z,72.75
2023-01-22T16:49:11.182Z,74.48
2023-01-22T16:51:41.432Z,74.57
2023-01-22T16:54:08.262Z,74.23
2023-01-22T16:56:35.326Z,73.45
2023-01-22T16:59:02.183Z,73.16
2023-01-22T17:01:30.467Z,73.71
2023-01-22T17:03:57.195Z,74.78
2023-01-22T17:06:31.330Z,74.20
2023-01-22T17:08:58.567Z,73.60
2023-01-22T17:11:25.358Z,73.14
2023-01-22T17:13:52.601Z,73.59
2023-01-22T17:16:19.527Z,73.19
2023-01-22T17:18:46.166Z,75.22
2023-01-22T17:21:16.024Z,75.28
2023-01-22T17:23:42.842Z,74.93
2023-01-22T17:26:11.817Z,74.04
2023-01-22T17:28:39.579Z,72.97
2023-01-22T17:31:11.826Z,73.21
2023-01-22T17:33:38.936Z,75.08
2023-01-22T17:36:06.753Z,74.99
2023-01-22T17:38:38.512Z,76.20
2023-01-22T17:41:11.833Z,76.05
2023-01-22T17:43:41.491Z,76.73
2023-01-22T17:46:31.492Z,74.98
2023-01-22T17:49:01.100Z,74.51
2023-01-22T17:51:29.192Z,74.16
2023-01-22T17:53:58.243Z,73.09
2023-01-22T17:56:36.551Z,72.62
2023-01-22T18:02:21.009Z,72.12
2023-01-22T18:04:47.699Z,71.82
2023-01-22T18:07:14.319Z,71.76
2023-01-22T18:09:40.890Z,71.68
2023-01-22T18:12:07.576Z,71.81
2023-01-22T18:14:34.291Z,72.71
2023-01-22T18:17:01.745Z,73.27
2023-01-22T18:19:28.457Z,73.66
2023-01-22T18:21:55.987Z,73.28
2023-01-22T18:24:24.115Z,72.97
2023-01-22T18:26:50.888Z,73.29
2023-01-22T18:29:17.493Z,74.31
2023-01-22T18:31:44.482Z,75.28
2023-01-22T18:34:14.728Z,76.58
2023-01-22T18:36:42.409Z,76.12
2023-01-22T18:39:14.872Z,76.08
2023-01-22T18:41:42.104Z,75.81
2023-01-22T18:44:10.116Z,75.22
2023-01-22T18:46:39.100Z,76.69
2023-01-22T18:49:10.565Z,76.37
2023-01-22T18:51:37.174Z,76.34
2023-01-22T18:54:07.803Z,76.86
2023-01-22T18:56:35.382Z,77.55
2023-01-22T18:59:02.005Z,78.08
2023-01-22T19:01:31.831Z,77.64
2023-01-22T19:04:01.029Z,77.55
2023-01-22T19:06:35.167Z,77.72
2023-01-22T19:09:14.059Z,79.16
2023-01-22T19:11:47.045Z,79.78
2023-01-22T19:14:17.195Z,80.08
2023-01-22T19:16:45.018Z,81.70
2023-01-22T19:19:13.675Z,81.60
2023-01-22T19:21:46.732Z,83.35
2023-01-22T19:24:14.931Z,83.31
2023-01-22T19:26:42.691Z,82.21
2023-01-22T19:29:12.989Z,82.19
2023-01-22T19:31:42.947Z,81.23
2023-01-22T19:34:12.100Z,80.09
2023-01-22T19:36:39.296Z,79.82
2023-01-22T19:39:11.468Z,79.80
2023-01-22T19:41:39.400Z,78.63
2023-01-22T19:44:06.219Z,78.89
2023-01-22T19:46:34.501Z,78.26
2023-01-22T19:49:01.246Z,79.45
2023-01-22T19:51:30.579Z,80.60
2023-01-22T19:54:00.209Z,80.44
2023-01-22T19:56:30.086Z,79.62
2023-01-22T19:59:03.077Z,78.48
2023-01-22T20:01:29.850Z,78.26
2023-01-22T20:03:56.459Z,78.39
2023-01-22T20:06:24.045Z,79.54
2023-01-22T20:08:51.799Z,78.68
2023-01-22T20:11:18.733Z,78.93
2023-01-22T20:13:45.327Z,79.19
2023-01-22T20:16:20.062Z,78.49
2023-01-22T20:18:47.473Z,77.99
2023-01-22T20:21:16.489Z,78.32
2023-01-22T20:23:44.592Z,78.46
2023-01-22T20:26:11.581Z,78.71
2023-01-22T20:28:39.742Z,79.74
2023-01-22T20:31:11.029Z,78.72
2023-01-22T20:33:38.058Z,79.29
2023-01-22T20:36:08.205Z,78.85
2023-01-22T20:38:35.416Z,79.32
2023-01-22T20:41:09.201Z,79.95
2023-01-22T20:43:40.391Z,80.91
2023-01-22T20:56:31.579Z,82.77
2023-01-22T20:59:02.529Z,81.31
2023-01-22T21:05:30.177Z,80.31
2023-01-22T21:07:56.789Z,80.54
2023-01-22T21:10:23.352Z,80.03
2023-01-22T21:12:49.930Z,81.37
2023-01-22T21:15:16.544Z,80.49
2023-01-22T21:17:43.066Z,79.53
2023-01-22T21:20:10.647Z,80.45
2023-01-22T21:22:39.627Z,81.05
2023-01-22T21:25:06.900Z,80.77
2023-01-22T21:27:33.794Z,79.70
2023-01-22T21:30:00.350Z,79.76
2023-01-22T21:32:28.097Z,79.94
2023-01-22T21:34:54.720Z,80.61
2023-01-22T21:37:21.279Z,82.10
2023-01-22T21:39:47.972Z,80.79
2023-01-22T21:42:33.620Z,80.70
2023-01-22T21:45:18.525Z,80.70
2023-01-22T21:47:45.160Z,81.09
2023-01-22T21:55:23.556Z,84.31
2023-01-22T21:57:51.532Z,83.01
2023-01-22T22:00:19.710Z,83.68
2023-01-22T22:02:46.623Z,82.85
2023-01-22T22:05:34.498Z,82.72
2023-01-22T22:11:25.258Z,82.60
2023-01-22T22:13:52.334Z,82.25
2023-01-22T22:16:19.080Z,81.95
2023-01-22T22:18:45.996Z,81.55
2023-01-22T22:21:27.940Z,81.48
2023-01-22T22:23:58.149Z,82.06
2023-01-22T22:26:25.236Z,81.31
2023-01-22T22:28:52.392Z,81.60
2023-01-22T22:31:19.743Z,81.01
2023-01-22T22:33:48.894Z,82.01
2023-01-22T22:36:46.702Z,81.09
2023-01-22T22:39:28.657Z,80.41
2023-01-22T22:41:55.266Z,80.55
2023-01-22T22:44:21.893Z,79.74
2023-01-22T22:50:16.235Z,79.84
2023-01-22T22:52:43.493Z,80.42
2023-01-22T22:55:10.260Z,80.34
2023-01-22T22:57:36.866Z,80.35
2023-01-22T23:00:19.155Z,80.07
2023-01-22T23:02:45.829Z,80.07
2023-01-22T23:10:28.918Z,79.44
2023-01-22T23:13:00.686Z,79.00
2023-01-22T23:15:29.619Z,79.10
2023-01-22T23:17:57.754Z,79.64
2023-01-22T23:21:08.188Z,79.23
2023-01-22T23:24:24.573Z,79.09
2023-01-22T23:27:03.023Z,78.71
2023-01-22T23:29:29.657Z,79.16
2023-01-22T23:31:56.797Z,80.14
2023-01-22T23:34:23.685Z,81.81
2023-01-22T23:37:02.783Z,80.50
2023-01-22T23:39:29.479Z,80.03
2023-01-22T23:41:56.017Z,79.41
2023-01-22T23:44:22.608Z,79.50
2023-01-22T23:46:49.202Z,79.29
2023-01-22T23:49:15.858Z,79.11
2023-01-22T23:51:44.346Z,78.45
2023-01-22T23:54:11.146Z,78.26
2023-01-22T23:56:37.936Z,78.23
2023-01-22T23:59:04.950Z,77.66
